sensor_id;sensor_type;location;lat;lon;timestamp;P1;durP1;ratioP1;P2;durP2;ratioP2
71166;SDS011;58864;45.928;20.078;2023-05-07T00:01:38;7.00;;;2.95;;
71166;SDS011;58864;45.928;20.078;2023-05-07T00:04:02;5.97;;;2.97;;
71166;SDS011;58864;45.928;20.078;2023-05-07T00:06:27;6.50;;;3.08;;
71166;SDS011;58864;45.928;20.078;2023-05-07T00:08:52;812.10;;;745.10;;
71166;SDS011;58864;45.928;20.078;2023-05-07T00:11:17;317.00;;;298.13;;
71166;SDS011;58864;45.928;20.078;2023-05-07T00:13:41;337.00;;;319.40;;
71166;SDS011;58864;45.928;20.078;2023-05-07T00:16:06;138.87;;;130.50;;
71166;SDS011;58864;45.928;20.078;2023-05-07T00:18:30;726.10;;;679.97;;
71166;SDS011;58864;45.928;20.078;2023-05-07T00:20:55;126.83;;;119.70;;
71166;SDS011;58864;45.928;20.078;2023-05-07T00:23:20;305.02;;;288.75;;
71166;SDS011;58864;45.928;20.078;2023-05-07T00:25:44;207.47;;;196.00;;
71166;SDS011;58864;45.928;20.078;2023-05-07T00:28:09;263.80;;;249.33;;
71166;SDS011;58864;45.928;20.078;2023-05-07T00:30:33;258.70;;;244.63;;
71166;SDS011;58864;45.928;20.078;2023-05-07T00:32:58;247.20;;;233.30;;
71166;SDS011;58864;45.928;20.078;2023-05-07T00:35:22;215.17;;;203.57;;
71166;SDS011;58864;45.928;20.078;2023-05-07T00:37:47;188.50;;;177.63;;
71166;SDS011;58864;45.928;20.078;2023-05-07T00:40:12;160.60;;;151.70;;
71166;SDS011;58864;45.928;20.078;2023-05-07T00:42:37;145.50;;;137.25;;
71166;SDS011;58864;45.928;20.078;2023-05-07T00:45:02;132.67;;;124.70;;
71166;SDS011;58864;45.928;20.078;2023-05-07T00:47:27;101.20;;;95.35;;
71166;SDS011;58864;45.928;20.078;2023-05-07T00:49:51;72.47;;;67.97;;
71166;SDS011;58864;45.928;20.078;2023-05-07T00:52:16;60.97;;;56.97;;
71166;SDS011;58864;45.928;20.078;2023-05-07T00:54:41;65.60;;;61.70;;
71166;SDS011;58864;45.928;20.078;2023-05-07T00:57:06;73.25;;;68.85;;
71166;SDS011;58864;45.928;20.078;2023-05-07T00:59:33;77.57;;;73.05;;
71166;SDS011;58864;45.928;20.078;2023-05-07T01:01:59;74.25;;;69.78;;
71166;SDS011;58864;45.928;20.078;2023-05-07T01:04:23;902.17;;;837.40;;
71166;SDS011;58864;45.928;20.078;2023-05-07T01:06:49;864.80;;;805.88;;
71166;SDS011;58864;45.928;20.078;2023-05-07T01:09:14;849.95;;;791.22;;
71166;SDS011;58864;45.928;20.078;2023-05-07T01:11:38;849.83;;;790.93;;
71166;SDS011;58864;45.928;20.078;2023-05-07T01:14:03;1999.90;;;999.90;;
71166;SDS011;58864;45.928;20.078;2023-05-07T01:16:28;1999.90;;;999.90;;
71166;SDS011;58864;45.928;20.078;2023-05-07T01:18:52;1999.90;;;999.90;;
71166;SDS011;58864;45.928;20.078;2023-05-07T01:21:17;1999.90;;;999.90;;
71166;SDS011;58864;45.928;20.078;2023-05-07T01:23:42;1999.90;;;999.90;;
71166;SDS011;58864;45.928;20.078;2023-05-07T01:26:06;1999.90;;;999.90;;
71166;SDS011;58864;45.928;20.078;2023-05-07T01:28:31;1999.90;;;999.90;;
71166;SDS011;58864;45.928;20.078;2023-05-07T01:30:57;1999.90;;;999.90;;
71166;SDS011;58864;45.928;20.078;2023-05-07T01:33:25;1999.90;;;999.90;;
71166;SDS011;58864;45.928;20.078;2023-05-07T01:35:51;1999.90;;;999.90;;
71166;SDS011;58864;45.928;20.078;2023-05-07T01:38:17;1999.90;;;999.90;;
71166;SDS011;58864;45.928;20.078;2023-05-07T01:40:42;1999.90;;;999.90;;
71166;SDS011;58864;45.928;20.078;2023-05-07T01:43:07;1999.90;;;999.90;;
71166;SDS011;58864;45.928;20.078;2023-05-07T01:45:32;1999.90;;;999.90;;
71166;SDS011;58864;45.928;20.078;2023-05-07T01:48:01;1999.90;;;999.90;;
71166;SDS011;58864;45.928;20.078;2023-05-07T01:50:26;1999.90;;;999.90;;
71166;SDS011;58864;45.928;20.078;2023-05-07T01:52:51;1999.90;;;999.90;;
71166;SDS011;58864;45.928;20.078;2023-05-07T01:55:16;1999.90;;;999.90;;
71166;SDS011;58864;45.928;20.078;2023-05-07T01:57:40;1999.90;;;999.90;;
71166;SDS011;58864;45.928;20.078;2023-05-07T02:00:05;1999.90;;;999.90;;
71166;SDS011;58864;45.928;20.078;2023-05-07T02:02:30;1999.90;;;999.90;;
71166;SDS011;58864;45.928;20.078;2023-05-07T02:04:56;1999.90;;;999.90;;
71166;SDS011;58864;45.928;20.078;2023-05-07T02:07:20;1999.90;;;999.90;;
71166;SDS011;58864;45.928;20.078;2023-05-07T02:09:45;1999.90;;;999.90;;
71166;SDS011;58864;45.928;20.078;2023-05-07T02:12:09;1999.90;;;999.90;;
71166;SDS011;58864;45.928;20.078;2023-05-07T02:14:34;1999.90;;;999.90;;
71166;SDS011;58864;45.928;20.078;2023-05-07T02:16:58;1999.90;;;999.90;;
71166;SDS011;58864;45.928;20.078;2023-05-07T02:19:23;1999.90;;;999.90;;
71166;SDS011;58864;45.928;20.078;2023-05-07T02:21:47;1999.90;;;999.90;;
71166;SDS011;58864;45.928;20.078;2023-05-07T02:24:12;1999.90;;;999.90;;
71166;SDS011;58864;45.928;20.078;2023-05-07T02:26:36;1999.90;;;999.90;;
71166;SDS011;58864;45.928;20.078;2023-05-07T02:29:01;1999.90;;;999.90;;
71166;SDS011;58864;45.928;20.078;2023-05-07T02:31:25;1999.90;;;999.90;;
71166;SDS011;58864;45.928;20.078;2023-05-07T02:33:49;1999.90;;;999.90;;
71166;SDS011;58864;45.928;20.078;2023-05-07T02:36:14;1999.90;;;999.90;;
71166;SDS011;58864;45.928;20.078;2023-05-07T02:38:38;1999.90;;;999.90;;
71166;SDS011;58864;45.928;20.078;2023-05-07T02:41:03;1999.90;;;999.90;;
71166;SDS011;58864;45.928;20.078;2023-05-07T02:43:27;1999.90;;;999.90;;
71166;SDS011;58864;45.928;20.078;2023-05-07T02:46:02;55.43;;;26.57;;
71166;SDS011;58864;45.928;20.078;2023-05-07T02:48:27;8.30;;;3.77;;
71166;SDS011;58864;45.928;20.078;2023-05-07T02:50:52;9.13;;;4.32;;
71166;SDS011;58864;45.928;20.078;2023-05-07T02:53:16;9.33;;;4.50;;
71166;SDS011;58864;45.928;20.078;2023-05-07T02:55:40;12.90;;;4.50;;
71166;SDS011;58864;45.928;20.078;2023-05-07T02:58:05;9.57;;;4.17;;
71166;SDS011;58864;45.928;20.078;2023-05-07T03:00:29;8.30;;;4.37;;
71166;SDS011;58864;45.928;20.078;2023-05-07T03:02:54;9.37;;;3.90;;
71166;SDS011;58864;45.928;20.078;2023-05-07T03:05:18;8.83;;;4.57;;
71166;SDS011;58864;45.928;20.078;2023-05-07T03:07:43;7.70;;;3.90;;
71166;SDS011;58864;45.928;20.078;2023-05-07T03:10:09;10.10;;;4.50;;
71166;SDS011;58864;45.928;20.078;2023-05-07T03:12:34;9.73;;;4.73;;
71166;SDS011;58864;45.928;20.078;2023-05-07T03:14:58;9.82;;;5.00;;
71166;SDS011;58864;45.928;20.078;2023-05-07T03:17:23;9.67;;;5.03;;
71166;SDS011;58864;45.928;20.078;2023-05-07T03:19:47;9.00;;;4.73;;
71166;SDS011;58864;45.928;20.078;2023-05-07T03:22:11;7.90;;;4.13;;
71166;SDS011;58864;45.928;20.078;2023-05-07T03:24:36;9.30;;;4.47;;
71166;SDS011;58864;45.928;20.078;2023-05-07T03:27:00;10.07;;;4.63;;
71166;SDS011;58864;45.928;20.078;2023-05-07T03:29:25;11.03;;;4.53;;
71166;SDS011;58864;45.928;20.078;2023-05-07T03:31:49;7.30;;;3.90;;
71166;SDS011;58864;45.928;20.078;2023-05-07T03:34:14;8.67;;;4.57;;
71166;SDS011;58864;45.928;20.078;2023-05-07T03:36:38;10.85;;;5.53;;
71166;SDS011;58864;45.928;20.078;2023-05-07T03:39:03;13.03;;;6.10;;
71166;SDS011;58864;45.928;20.078;2023-05-07T03:41:28;12.57;;;6.20;;
71166;SDS011;58864;45.928;20.078;2023-05-07T03:43:53;14.18;;;5.60;;
71166;SDS011;58864;45.928;20.078;2023-05-07T03:46:18;12.47;;;5.97;;
71166;SDS011;58864;45.928;20.078;2023-05-07T03:48:42;10.05;;;5.40;;
71166;SDS011;58864;45.928;20.078;2023-05-07T03:51:06;9.53;;;5.53;;
71166;SDS011;58864;45.928;20.078;2023-05-07T03:53:31;11.00;;;5.57;;
71166;SDS011;58864;45.928;20.078;2023-05-07T03:55:55;12.37;;;5.97;;
71166;SDS011;58864;45.928;20.078;2023-05-07T03:58:20;13.35;;;6.60;;
71166;SDS011;58864;45.928;20.078;2023-05-07T04:00:44;16.03;;;7.80;;
71166;SDS011;58864;45.928;20.078;2023-05-07T04:03:09;16.48;;;8.30;;
71166;SDS011;58864;45.928;20.078;2023-05-07T04:05:33;14.10;;;7.83;;
71166;SDS011;58864;45.928;20.078;2023-05-07T04:07:58;13.77;;;7.30;;
71166;SDS011;58864;45.928;20.078;2023-05-07T04:10:23;13.02;;;6.10;;
71166;SDS011;58864;45.928;20.078;2023-05-07T04:12:47;10.63;;;5.43;;
71166;SDS011;58864;45.928;20.078;2023-05-07T04:15:12;10.02;;;5.07;;
71166;SDS011;58864;45.928;20.078;2023-05-07T04:17:36;12.47;;;5.13;;
71166;SDS011;58864;45.928;20.078;2023-05-07T04:20:01;10.17;;;4.93;;
71166;SDS011;58864;45.928;20.078;2023-05-07T04:22:26;10.45;;;4.75;;
71166;SDS011;58864;45.928;20.078;2023-05-07T04:24:50;7.70;;;4.03;;
71166;SDS011;58864;45.928;20.078;2023-05-07T04:27:15;9.70;;;4.32;;
71166;SDS011;58864;45.928;20.078;2023-05-07T04:29:39;10.67;;;4.50;;
71166;SDS011;58864;45.928;20.078;2023-05-07T04:32:06;9.00;;;3.65;;
71166;SDS011;58864;45.928;20.078;2023-05-07T04:34:30;9.37;;;3.77;;
71166;SDS011;58864;45.928;20.078;2023-05-07T04:36:57;8.63;;;4.10;;
71166;SDS011;58864;45.928;20.078;2023-05-07T04:39:22;7.95;;;4.13;;
71166;SDS011;58864;45.928;20.078;2023-05-07T04:41:47;7.60;;;3.87;;
71166;SDS011;58864;45.928;20.078;2023-05-07T04:44:11;8.15;;;3.83;;
71166;SDS011;58864;45.928;20.078;2023-05-07T04:46:36;6.73;;;3.10;;
71166;SDS011;58864;45.928;20.078;2023-05-07T04:49:00;8.40;;;4.03;;
71166;SDS011;58864;45.928;20.078;2023-05-07T04:51:25;8.20;;;4.07;;
71166;SDS011;58864;45.928;20.078;2023-05-07T04:53:49;9.23;;;4.20;;
71166;SDS011;58864;45.928;20.078;2023-05-07T04:56:14;8.65;;;4.65;;
71166;SDS011;58864;45.928;20.078;2023-05-07T04:58:38;7.90;;;4.53;;
71166;SDS011;58864;45.928;20.078;2023-05-07T05:01:03;8.67;;;4.60;;
71166;SDS011;58864;45.928;20.078;2023-05-07T05:03:29;8.13;;;4.18;;
71166;SDS011;58864;45.928;20.078;2023-05-07T05:05:54;11.20;;;4.65;;
71166;SDS011;58864;45.928;20.078;2023-05-07T05:08:18;8.53;;;5.00;;
71166;SDS011;58864;45.928;20.078;2023-05-07T05:10:43;9.37;;;4.70;;
71166;SDS011;58864;45.928;20.078;2023-05-07T05:13:07;11.27;;;5.32;;
71166;SDS011;58864;45.928;20.078;2023-05-07T05:15:32;8.87;;;4.33;;
71166;SDS011;58864;45.928;20.078;2023-05-07T05:17:56;8.35;;;4.43;;
71166;SDS011;58864;45.928;20.078;2023-05-07T05:20:21;8.77;;;4.97;;
71166;SDS011;58864;45.928;20.078;2023-05-07T05:22:45;10.27;;;4.87;;
71166;SDS011;58864;45.928;20.078;2023-05-07T05:25:10;9.83;;;5.20;;
71166;SDS011;58864;45.928;20.078;2023-05-07T05:27:34;9.20;;;5.28;;
71166;SDS011;58864;45.928;20.078;2023-05-07T05:29:59;8.80;;;4.77;;
71166;SDS011;58864;45.928;20.078;2023-05-07T05:32:23;9.70;;;5.20;;
71166;SDS011;58864;45.928;20.078;2023-05-07T05:34:48;9.40;;;4.80;;
71166;SDS011;58864;45.928;20.078;2023-05-07T05:37:12;11.37;;;5.00;;
71166;SDS011;58864;45.928;20.078;2023-05-07T05:39:37;11.83;;;4.97;;
71166;SDS011;58864;45.928;20.078;2023-05-07T05:42:01;12.82;;;4.93;;
71166;SDS011;58864;45.928;20.078;2023-05-07T05:44:26;9.90;;;4.97;;
71166;SDS011;58864;45.928;20.078;2023-05-07T05:46:50;10.03;;;4.63;;
71166;SDS011;58864;45.928;20.078;2023-05-07T05:49:15;11.60;;;5.10;;
71166;SDS011;58864;45.928;20.078;2023-05-07T05:51:39;10.13;;;4.90;;
71166;SDS011;58864;45.928;20.078;2023-05-07T05:54:04;8.57;;;4.60;;
71166;SDS011;58864;45.928;20.078;2023-05-07T05:56:28;8.20;;;3.90;;
71166;SDS011;58864;45.928;20.078;2023-05-07T05:58:53;9.87;;;4.80;;
71166;SDS011;58864;45.928;20.078;2023-05-07T06:01:18;11.63;;;4.57;;
71166;SDS011;58864;45.928;20.078;2023-05-07T06:03:43;11.17;;;4.37;;
71166;SDS011;58864;45.928;20.078;2023-05-07T06:06:07;10.60;;;4.68;;
71166;SDS011;58864;45.928;20.078;2023-05-07T06:08:31;11.87;;;4.73;;
71166;SDS011;58864;45.928;20.078;2023-05-07T06:10:56;9.23;;;4.60;;
71166;SDS011;58864;45.928;20.078;2023-05-07T06:13:23;8.27;;;4.32;;
71166;SDS011;58864;45.928;20.078;2023-05-07T06:15:48;8.63;;;4.20;;
71166;SDS011;58864;45.928;20.078;2023-05-07T06:18:13;9.07;;;4.30;;
71166;SDS011;58864;45.928;20.078;2023-05-07T06:20:37;8.05;;;4.07;;
71166;SDS011;58864;45.928;20.078;2023-05-07T06:23:02;8.90;;;4.40;;
71166;SDS011;58864;45.928;20.078;2023-05-07T06:25:26;8.17;;;4.40;;
71166;SDS011;58864;45.928;20.078;2023-05-07T06:27:51;10.05;;;4.53;;
71166;SDS011;58864;45.928;20.078;2023-05-07T06:30:15;8.83;;;4.17;;
71166;SDS011;58864;45.928;20.078;2023-05-07T06:32:40;7.87;;;4.30;;
71166;SDS011;58864;45.928;20.078;2023-05-07T06:35:04;11.63;;;4.28;;
71166;SDS011;58864;45.928;20.078;2023-05-07T06:37:29;10.30;;;4.47;;
71166;SDS011;58864;45.928;20.078;2023-05-07T06:39:53;8.63;;;4.00;;
71166;SDS011;58864;45.928;20.078;2023-05-07T06:42:18;7.87;;;3.77;;
71166;SDS011;58864;45.928;20.078;2023-05-07T06:44:42;9.95;;;4.10;;
71166;SDS011;58864;45.928;20.078;2023-05-07T06:47:07;8.03;;;4.00;;
71166;SDS011;58864;45.928;20.078;2023-05-07T06:49:31;7.13;;;3.90;;
71166;SDS011;58864;45.928;20.078;2023-05-07T06:51:56;9.80;;;4.40;;
71166;SDS011;58864;45.928;20.078;2023-05-07T06:54:21;12.90;;;4.13;;
71166;SDS011;58864;45.928;20.078;2023-05-07T06:56:46;9.53;;;4.23;;
71166;SDS011;58864;45.928;20.078;2023-05-07T06:59:10;8.90;;;4.13;;
71166;SDS011;58864;45.928;20.078;2023-05-07T07:01:35;10.60;;;3.93;;
71166;SDS011;58864;45.928;20.078;2023-05-07T07:03:59;8.40;;;4.00;;
71166;SDS011;58864;45.928;20.078;2023-05-07T07:06:24;7.72;;;3.65;;
71166;SDS011;58864;45.928;20.078;2023-05-07T07:08:49;10.48;;;4.10;;
71166;SDS011;58864;45.928;20.078;2023-05-07T07:11:14;9.33;;;3.73;;
71166;SDS011;58864;45.928;20.078;2023-05-07T07:13:39;7.57;;;3.53;;
71166;SDS011;58864;45.928;20.078;2023-05-07T07:16:04;9.30;;;3.73;;
71166;SDS011;58864;45.928;20.078;2023-05-07T07:18:28;8.43;;;3.40;;
71166;SDS011;58864;45.928;20.078;2023-05-07T07:20:53;6.78;;;3.50;;
71166;SDS011;58864;45.928;20.078;2023-05-07T07:23:17;8.60;;;3.53;;
71166;SDS011;58864;45.928;20.078;2023-05-07T07:25:42;9.82;;;3.50;;
71166;SDS011;58864;45.928;20.078;2023-05-07T07:28:07;10.00;;;3.53;;
71166;SDS011;58864;45.928;20.078;2023-05-07T07:30:31;8.20;;;3.33;;
71166;SDS011;58864;45.928;20.078;2023-05-07T07:32:55;7.57;;;3.80;;
71166;SDS011;58864;45.928;20.078;2023-05-07T07:35:26;5.73;;;3.20;;
71166;SDS011;58864;45.928;20.078;2023-05-07T07:37:50;7.30;;;3.78;;
71166;SDS011;58864;45.928;20.078;2023-05-07T07:40:15;9.43;;;3.90;;
71166;SDS011;58864;45.928;20.078;2023-05-07T07:42:39;8.17;;;3.53;;
71166;SDS011;58864;45.928;20.078;2023-05-07T07:45:04;8.50;;;3.47;;
71166;SDS011;58864;45.928;20.078;2023-05-07T07:47:29;7.77;;;3.60;;
71166;SDS011;58864;45.928;20.078;2023-05-07T07:49:53;7.00;;;3.55;;
71166;SDS011;58864;45.928;20.078;2023-05-07T07:52:18;8.13;;;3.80;;
71166;SDS011;58864;45.928;20.078;2023-05-07T07:54:42;8.45;;;3.80;;
71166;SDS011;58864;45.928;20.078;2023-05-07T07:57:07;10.47;;;3.93;;
71166;SDS011;58864;45.928;20.078;2023-05-07T07:59:31;9.57;;;4.00;;
71166;SDS011;58864;45.928;20.078;2023-05-07T08:01:56;11.97;;;3.47;;
71166;SDS011;58864;45.928;20.078;2023-05-07T08:04:21;6.70;;;3.20;;
71166;SDS011;58864;45.928;20.078;2023-05-07T08:06:47;6.45;;;3.40;;
71166;SDS011;58864;45.928;20.078;2023-05-07T08:09:11;6.83;;;3.27;;
71166;SDS011;58864;45.928;20.078;2023-05-07T08:11:35;7.75;;;3.35;;
71166;SDS011;58864;45.928;20.078;2023-05-07T08:14:00;7.67;;;3.30;;
71166;SDS011;58864;45.928;20.078;2023-05-07T08:16:24;7.30;;;3.80;;
71166;SDS011;58864;45.928;20.078;2023-05-07T08:18:49;7.47;;;3.50;;
71166;SDS011;58864;45.928;20.078;2023-05-07T08:21:13;6.55;;;2.97;;
71166;SDS011;58864;45.928;20.078;2023-05-07T08:23:38;6.23;;;3.20;;
71166;SDS011;58864;45.928;20.078;2023-05-07T08:26:02;6.80;;;3.13;;
71166;SDS011;58864;45.928;20.078;2023-05-07T08:28:27;6.93;;;2.85;;
71166;SDS011;58864;45.928;20.078;2023-05-07T08:30:51;7.43;;;3.20;;
71166;SDS011;58864;45.928;20.078;2023-05-07T08:33:16;6.07;;;2.77;;
71166;SDS011;58864;45.928;20.078;2023-05-07T08:35:40;7.55;;;3.20;;
71166;SDS011;58864;45.928;20.078;2023-05-07T08:38:05;8.27;;;3.13;;
71166;SDS011;58864;45.928;20.078;2023-05-07T08:40:29;7.20;;;3.20;;
71166;SDS011;58864;45.928;20.078;2023-05-07T08:43:00;6.50;;;2.78;;
71166;SDS011;58864;45.928;20.078;2023-05-07T08:45:25;6.47;;;3.10;;
71166;SDS011;58864;45.928;20.078;2023-05-07T08:47:51;7.17;;;3.00;;
71166;SDS011;58864;45.928;20.078;2023-05-07T08:50:25;5.50;;;2.78;;
71166;SDS011;58864;45.928;20.078;2023-05-07T08:52:50;6.10;;;2.97;;
71166;SDS011;58864;45.928;20.078;2023-05-07T08:55:14;6.27;;;3.20;;
71166;SDS011;58864;45.928;20.078;2023-05-07T08:57:39;7.80;;;3.00;;
71166;SDS011;58864;45.928;20.078;2023-05-07T09:00:04;8.07;;;3.03;;
71166;SDS011;58864;45.928;20.078;2023-05-07T09:02:30;7.95;;;3.92;;
71166;SDS011;58864;45.928;20.078;2023-05-07T09:04:54;8.27;;;2.97;;
71166;SDS011;58864;45.928;20.078;2023-05-07T09:07:19;7.38;;;3.08;;
71166;SDS011;58864;45.928;20.078;2023-05-07T09:09:44;5.87;;;2.90;;
71166;SDS011;58864;45.928;20.078;2023-05-07T09:12:09;10.10;;;3.15;;
71166;SDS011;58864;45.928;20.078;2023-05-07T09:14:33;12.07;;;3.50;;
71166;SDS011;58864;45.928;20.078;2023-05-07T09:16:58;8.57;;;3.28;;
71166;SDS011;58864;45.928;20.078;2023-05-07T09:19:23;6.93;;;3.30;;
71166;SDS011;58864;45.928;20.078;2023-05-07T09:21:48;9.55;;;3.10;;
71166;SDS011;58864;45.928;20.078;2023-05-07T09:24:14;6.03;;;2.77;;
71166;SDS011;58864;45.928;20.078;2023-05-07T09:26:39;6.85;;;3.22;;
71166;SDS011;58864;45.928;20.078;2023-05-07T09:29:04;9.33;;;2.90;;
71166;SDS011;58864;45.928;20.078;2023-05-07T09:31:28;7.17;;;2.87;;
71166;SDS011;58864;45.928;20.078;2023-05-07T09:33:53;5.60;;;2.90;;
71166;SDS011;58864;45.928;20.078;2023-05-07T09:36:19;8.45;;;3.08;;
71166;SDS011;58864;45.928;20.078;2023-05-07T09:38:44;6.43;;;2.70;;
71166;SDS011;58864;45.928;20.078;2023-05-07T09:41:10;4.93;;;2.28;;
71166;SDS011;58864;45.928;20.078;2023-05-07T09:43:35;5.27;;;2.53;;
71166;SDS011;58864;45.928;20.078;2023-05-07T09:46:25;5.43;;;2.60;;
71166;SDS011;58864;45.928;20.078;2023-05-07T09:48:56;5.97;;;2.40;;
71166;SDS011;58864;45.928;20.078;2023-05-07T09:51:22;6.38;;;2.70;;
71166;SDS011;58864;45.928;20.078;2023-05-07T09:53:53;7.13;;;2.47;;
71166;SDS011;58864;45.928;20.078;2023-05-07T09:56:17;6.93;;;2.53;;
71166;SDS011;58864;45.928;20.078;2023-05-07T09:58:42;6.90;;;2.95;;
71166;SDS011;58864;45.928;20.078;2023-05-07T10:01:08;7.75;;;2.80;;
71166;SDS011;58864;45.928;20.078;2023-05-07T10:03:34;10.18;;;3.22;;
71166;SDS011;58864;45.928;20.078;2023-05-07T10:06:00;6.27;;;2.80;;
71166;SDS011;58864;45.928;20.078;2023-05-07T10:08:25;5.68;;;2.72;;
71166;SDS011;58864;45.928;20.078;2023-05-07T10:10:49;6.67;;;2.80;;
71166;SDS011;58864;45.928;20.078;2023-05-07T10:13:14;5.93;;;2.50;;
71166;SDS011;58864;45.928;20.078;2023-05-07T10:15:38;6.73;;;2.90;;
71166;SDS011;58864;45.928;20.078;2023-05-07T10:18:03;6.88;;;2.50;;
71166;SDS011;58864;45.928;20.078;2023-05-07T10:20:29;6.10;;;2.60;;
71166;SDS011;58864;45.928;20.078;2023-05-07T10:22:54;8.67;;;2.60;;
71166;SDS011;58864;45.928;20.078;2023-05-07T10:27:49;6.43;;;2.85;;
71166;SDS011;58864;45.928;20.078;2023-05-07T10:33:05;5.60;;;2.60;;
71166;SDS011;58864;45.928;20.078;2023-05-07T10:35:35;6.63;;;3.10;;
71166;SDS011;58864;45.928;20.078;2023-05-07T10:38:02;6.90;;;2.55;;
71166;SDS011;58864;45.928;20.078;2023-05-07T10:40:27;5.45;;;2.70;;
71166;SDS011;58864;45.928;20.078;2023-05-07T10:42:58;5.30;;;2.67;;
71166;SDS011;58864;45.928;20.078;2023-05-07T10:45:24;5.47;;;2.58;;
71166;SDS011;58864;45.928;20.078;2023-05-07T10:48:08;7.97;;;3.33;;
71166;SDS011;58864;45.928;20.078;2023-05-07T10:50:33;7.75;;;2.80;;
71166;SDS011;58864;45.928;20.078;2023-05-07T10:55:40;5.75;;;2.50;;
71166;SDS011;58864;45.928;20.078;2023-05-07T10:58:24;5.33;;;2.53;;
71166;SDS011;58864;45.928;20.078;2023-05-07T11:00:50;6.30;;;2.53;;
71166;SDS011;58864;45.928;20.078;2023-05-07T11:03:15;7.35;;;2.50;;
71166;SDS011;58864;45.928;20.078;2023-05-07T11:05:39;5.70;;;2.60;;
71166;SDS011;58864;45.928;20.078;2023-05-07T11:08:04;5.95;;;2.83;;
71166;SDS011;58864;45.928;20.078;2023-05-07T11:13:12;6.05;;;2.67;;
71166;SDS011;58864;45.928;20.078;2023-05-07T11:15:39;6.50;;;2.50;;
71166;SDS011;58864;45.928;20.078;2023-05-07T11:18:14;6.85;;;3.13;;
71166;SDS011;58864;45.928;20.078;2023-05-07T11:20:47;6.10;;;3.10;;
71166;SDS011;58864;45.928;20.078;2023-05-07T11:25:59;7.68;;;2.55;;
71166;SDS011;58864;45.928;20.078;2023-05-07T11:28:24;11.85;;;3.05;;
71166;SDS011;58864;45.928;20.078;2023-05-07T11:30:48;9.63;;;2.67;;
71166;SDS011;58864;45.928;20.078;2023-05-07T11:33:13;5.30;;;2.58;;
71166;SDS011;58864;45.928;20.078;2023-05-07T11:35:41;9.38;;;3.78;;
71166;SDS011;58864;45.928;20.078;2023-05-07T11:38:06;6.80;;;2.70;;
71166;SDS011;58864;45.928;20.078;2023-05-07T11:40:30;6.55;;;2.80;;
71166;SDS011;58864;45.928;20.078;2023-05-07T11:42:55;5.17;;;2.60;;
71166;SDS011;58864;45.928;20.078;2023-05-07T11:45:23;6.07;;;2.70;;
71166;SDS011;58864;45.928;20.078;2023-05-07T11:47:50;5.85;;;2.78;;
71166;SDS011;58864;45.928;20.078;2023-05-07T11:50:15;5.67;;;2.50;;
71166;SDS011;58864;45.928;20.078;2023-05-07T11:52:39;5.53;;;2.88;;
71166;SDS011;58864;45.928;20.078;2023-05-07T11:55:04;5.83;;;3.00;;
71166;SDS011;58864;45.928;20.078;2023-05-07T11:57:29;6.37;;;3.00;;
71166;SDS011;58864;45.928;20.078;2023-05-07T11:59:54;6.53;;;2.88;;
71166;SDS011;58864;45.928;20.078;2023-05-07T12:02:21;7.00;;;2.70;;
71166;SDS011;58864;45.928;20.078;2023-05-07T12:04:46;5.53;;;2.83;;
71166;SDS011;58864;45.928;20.078;2023-05-07T12:07:11;6.70;;;2.77;;
71166;SDS011;58864;45.928;20.078;2023-05-07T12:09:39;7.32;;;3.50;;
71166;SDS011;58864;45.928;20.078;2023-05-07T12:12:04;5.50;;;3.00;;
71166;SDS011;58864;45.928;20.078;2023-05-07T12:14:29;6.17;;;3.20;;
71166;SDS011;58864;45.928;20.078;2023-05-07T12:16:54;7.38;;;3.00;;
71166;SDS011;58864;45.928;20.078;2023-05-07T12:19:18;7.35;;;2.88;;
71166;SDS011;58864;45.928;20.078;2023-05-07T12:21:43;7.00;;;3.30;;
71166;SDS011;58864;45.928;20.078;2023-05-07T12:24:07;6.17;;;3.03;;
71166;SDS011;58864;45.928;20.078;2023-05-07T12:26:32;5.70;;;2.85;;
71166;SDS011;58864;45.928;20.078;2023-05-07T12:28:59;6.67;;;2.83;;
71166;SDS011;58864;45.928;20.078;2023-05-07T12:31:27;7.47;;;2.60;;
71166;SDS011;58864;45.928;20.078;2023-05-07T12:33:51;5.13;;;2.93;;
71166;SDS011;58864;45.928;20.078;2023-05-07T12:36:16;6.20;;;3.00;;
71166;SDS011;58864;45.928;20.078;2023-05-07T12:38:41;6.13;;;3.00;;
71166;SDS011;58864;45.928;20.078;2023-05-07T12:41:06;5.78;;;2.60;;
71166;SDS011;58864;45.928;20.078;2023-05-07T12:43:31;5.28;;;2.95;;
71166;SDS011;58864;45.928;20.078;2023-05-07T12:45:57;5.70;;;2.80;;
71166;SDS011;58864;45.928;20.078;2023-05-07T12:48:24;6.10;;;2.80;;
71166;SDS011;58864;45.928;20.078;2023-05-07T12:50:54;5.72;;;2.55;;
71166;SDS011;58864;45.928;20.078;2023-05-07T12:53:20;4.47;;;2.22;;
71166;SDS011;58864;45.928;20.078;2023-05-07T12:55:47;7.70;;;2.80;;
71166;SDS011;58864;45.928;20.078;2023-05-07T12:58:16;6.22;;;2.42;;
71166;SDS011;58864;45.928;20.078;2023-05-07T13:00:42;6.38;;;2.63;;
71166;SDS011;58864;45.928;20.078;2023-05-07T13:03:07;6.25;;;2.63;;
71166;SDS011;58864;45.928;20.078;2023-05-07T13:05:31;5.77;;;2.70;;
71166;SDS011;58864;45.928;20.078;2023-05-07T13:07:56;7.23;;;2.80;;
71166;SDS011;58864;45.928;20.078;2023-05-07T13:10:21;7.28;;;2.60;;
71166;SDS011;58864;45.928;20.078;2023-05-07T13:12:47;5.13;;;2.65;;
71166;SDS011;58864;45.928;20.078;2023-05-07T13:15:11;6.63;;;2.73;;
71166;SDS011;58864;45.928;20.078;2023-05-07T13:17:35;6.03;;;2.70;;
71166;SDS011;58864;45.928;20.078;2023-05-07T13:20:00;4.97;;;2.70;;
71166;SDS011;58864;45.928;20.078;2023-05-07T13:22:24;6.00;;;2.70;;
71166;SDS011;58864;45.928;20.078;2023-05-07T13:24:49;5.70;;;2.80;;
71166;SDS011;58864;45.928;20.078;2023-05-07T13:27:14;9.90;;;4.00;;
71166;SDS011;58864;45.928;20.078;2023-05-07T13:29:39;9.48;;;3.80;;
71166;SDS011;58864;45.928;20.078;2023-05-07T13:32:03;8.60;;;4.10;;
71166;SDS011;58864;45.928;20.078;2023-05-07T13:34:28;8.47;;;3.80;;
71166;SDS011;58864;45.928;20.078;2023-05-07T13:36:52;8.80;;;4.00;;
71166;SDS011;58864;45.928;20.078;2023-05-07T13:39:17;7.30;;;3.60;;
71166;SDS011;58864;45.928;20.078;2023-05-07T13:41:41;9.33;;;4.30;;
71166;SDS011;58864;45.928;20.078;2023-05-07T13:44:06;8.98;;;4.57;;
71166;SDS011;58864;45.928;20.078;2023-05-07T13:46:30;8.40;;;3.90;;
71166;SDS011;58864;45.928;20.078;2023-05-07T13:48:55;9.30;;;4.67;;
71166;SDS011;58864;45.928;20.078;2023-05-07T13:51:20;8.88;;;3.70;;
71166;SDS011;58864;45.928;20.078;2023-05-07T13:53:44;8.10;;;4.13;;
71166;SDS011;58864;45.928;20.078;2023-05-07T13:56:09;6.95;;;3.90;;
71166;SDS011;58864;45.928;20.078;2023-05-07T13:58:33;8.23;;;4.23;;
71166;SDS011;58864;45.928;20.078;2023-05-07T14:00:58;8.40;;;4.43;;
71166;SDS011;58864;45.928;20.078;2023-05-07T14:03:22;11.87;;;4.10;;
71166;SDS011;58864;45.928;20.078;2023-05-07T14:05:47;7.78;;;4.25;;
71166;SDS011;58864;45.928;20.078;2023-05-07T14:08:11;180.37;;;45.53;;
71166;SDS011;58864;45.928;20.078;2023-05-07T14:10:37;7.80;;;5.10;;
71166;SDS011;58864;45.928;20.078;2023-05-07T14:13:02;8.80;;;4.10;;
71166;SDS011;58864;45.928;20.078;2023-05-07T14:15:26;8.03;;;4.47;;
71166;SDS011;58864;45.928;20.078;2023-05-07T14:17:51;10.30;;;4.50;;
71166;SDS011;58864;45.928;20.078;2023-05-07T14:20:15;6.63;;;4.33;;
71166;SDS011;58864;45.928;20.078;2023-05-07T14:22:40;11.33;;;4.90;;